EGQL/ADX METAR and TAF weather

Enter ICAO airport designator
Station Type Date Time Source
EGQL METAR 2020/09/22 07:50 UTC NOAA

EGQL 220750Z 24013KT 9999 BKN018 13/09 Q1003 WHT


Station Type Date Time Source
EGQL Decoded METAR 2020/09/22 07:50 UTC NOAA

Leuchars, United Kingdom (EGQL) 56-23N 002-52W 0M
Sep 22, 2020 - 03:50 AM EDT / 2020.09.22 0750 UTC
Wind: from the WSW (240 degrees) at 15 MPH (13 KT):0
Visibility: greater than 7 mile(s):0
Sky conditions: mostly cloudy
Temperature: 55 F (13 C)
Dew Point: 48 F (9 C)
Relative Humidity: 76%
Pressure (altimeter): 29.62 in. Hg (1003 hPa)
ob: EGQL 220750Z 24013KT 9999 BKN018 13/09 Q1003 WHT
cycle: 8

Station Type Date Time Source
EGQL TAF 2011/07/27 06:03 UTC NOAA

TAF TAF
AMD EGQL 270424Z 2706/2724 14005KT 9999 BKN020 PROB30
TEMPO 2706/2708 SCT012
BECMG 2708/2710 SCT025

Example: see airport list